createdAt,value
2018-12-25T00:00:26.070Z,23
2018-12-25T00:01:15.190Z,22.9
2018-12-25T00:02:05.822Z,22.9
2018-12-25T00:02:56.184Z,22.9
2018-12-25T00:03:45.359Z,22.9
2018-12-25T00:04:35.717Z,22.9
2018-12-25T00:05:26.284Z,22.9
2018-12-25T00:06:15.244Z,22.9
2018-12-25T00:07:06.498Z,22.9
2018-12-25T00:07:56.190Z,22.9
2018-12-25T00:08:45.982Z,22.9
2018-12-25T00:09:35.877Z,22.9
2018-12-25T00:10:26.357Z,22.9
2018-12-25T00:11:15.882Z,22.9
2018-12-25T00:12:06.904Z,22.9
2018-12-25T00:12:55.824Z,22.9
2018-12-25T00:13:46.574Z,22.9
2018-12-25T00:14:36.680Z,22.9
2018-12-25T00:32:46.320Z,22.8
2018-12-25T00:33:35.828Z,22.8
2018-12-25T00:34:25.887Z,22.8
2018-12-25T00:35:15.892Z,22.8
2018-12-25T00:36:05.685Z,22.8
2018-12-25T00:36:56.022Z,22.8
2018-12-25T00:37:46.149Z,22.8
2018-12-25T00:38:36.432Z,22.8
2018-12-25T00:39:25.757Z,22.8
2018-12-25T00:40:16.239Z,22.8
2018-12-25T00:41:06.320Z,22.8
2018-12-25T00:41:56.646Z,22.8
2018-12-25T00:42:46.962Z,22.8
2018-12-25T00:43:34.907Z,22.8
2018-12-25T00:44:26.279Z,22.8
2018-12-25T00:45:18.893Z,22.8
2018-12-25T00:46:06.659Z,22.8
2018-12-25T00:46:56.719Z,22.8
2018-12-25T00:47:47.031Z,22.8
2018-12-25T00:48:37.111Z,22.8
2018-12-25T00:49:26.597Z,22.8
2018-12-25T00:50:16.981Z,22.8
2018-12-25T00:51:06.779Z,22.8
2018-12-25T00:51:57.124Z,22.8
2018-12-25T00:52:47.688Z,22.8
2018-12-25T00:53:36.903Z,22.8
2018-12-25T00:54:27.531Z,22.7
2018-12-25T00:55:17.551Z,22.7
2018-12-25T00:56:07.066Z,22.7
2018-12-25T00:56:56.851Z,22.8
2018-12-25T00:57:46.978Z,22.7
2018-12-25T00:58:38.143Z,22.7
2018-12-25T00:59:27.121Z,22.7
2018-12-25T01:00:17.346Z,22.7
2018-12-25T01:01:07.696Z,22.7
2018-12-25T01:01:56.651Z,22.7
2018-12-25T01:02:47.528Z,22.7
2018-12-25T01:03:37.847Z,22.7
2018-12-25T01:04:27.896Z,22.7
2018-12-25T01:05:17.423Z,22.7
2018-12-25T01:06:07.926Z,22.7
2018-12-25T01:06:57.255Z,22.7
2018-12-25T01:07:48.225Z,22.7
2018-12-25T01:08:37.935Z,22.6
2018-12-25T01:09:27.990Z,22.7
2018-12-25T01:10:18.623Z,22.7
2018-12-25T01:11:08.748Z,22.7
2018-12-25T01:11:58.452Z,22.6
2018-12-25T01:12:48.498Z,22.7
2018-12-25T01:13:38.538Z,22.6
2018-12-25T01:14:28.628Z,22.6
2018-12-25T01:15:18.948Z,22.6
2018-12-25T01:16:08.543Z,22.6
2018-12-25T01:16:58.248Z,22.6
2018-12-25T01:17:48.575Z,22.6
2018-12-25T01:18:38.437Z,22.6
2018-12-25T01:19:29.206Z,22.6
2018-12-25T01:20:19.290Z,22.6
2018-12-25T01:21:09.092Z,22.6
2018-12-25T01:21:58.295Z,22.6
2018-12-25T01:22:49.187Z,22.6
2018-12-25T01:23:39.225Z,22.6
2018-12-25T01:24:29.344Z,22.6
2018-12-25T01:25:19.660Z,22.6
2018-12-25T01:26:09.423Z,22.6
2018-12-25T01:26:59.755Z,22.6
2018-12-25T01:27:49.832Z,22.6
2018-12-25T01:28:39.897Z,22.6
2018-12-25T01:29:30.017Z,22.6
2018-12-25T01:30:19.710Z,22.6
2018-12-25T01:31:09.844Z,22.6
2018-12-25T01:31:59.837Z,22.6
2018-12-25T01:32:50.182Z,22.6
2018-12-25T01:33:39.119Z,22.6
2018-12-25T01:34:29.759Z,22.6
2018-12-25T01:35:19.484Z,22.6
2018-12-25T01:36:10.126Z,22.5
2018-12-25T01:36:59.887Z,22.6
2018-12-25T01:37:49.479Z,22.6
2018-12-25T01:38:40.359Z,22.6
2018-12-25T01:39:29.540Z,22.5
2018-12-25T01:40:19.807Z,22.6
2018-12-25T01:41:10.519Z,22.6
2018-12-25T01:42:00.513Z,22.5
2018-12-25T01:42:50.023Z,22.6
2018-12-25T01:43:40.870Z,22.5
2018-12-25T01:44:30.483Z,22.5
2018-12-25T01:45:20.453Z,22.5
2018-12-25T01:46:10.513Z,22.5
2018-12-25T01:47:00.569Z,22.5
2018-12-25T01:47:50.911Z,22.5
2018-12-25T01:48:41.220Z,22.5
2018-12-25T01:49:37.748Z,22.5
2018-12-25T01:50:21.338Z,22.5
2018-12-25T01:51:11.211Z,22.5
2018-12-25T01:52:01.477Z,22.5
2018-12-25T01:52:51.570Z,22.5
2018-12-25T01:53:40.752Z,22.5
2018-12-25T01:54:30.815Z,22.5
2018-12-25T01:55:21.202Z,22.4
2018-12-25T01:56:10.650Z,22.4
2018-12-25T01:57:01.378Z,22.4
2018-12-25T01:57:51.297Z,22.4
2018-12-25T01:58:41.097Z,22.4
2018-12-25T01:59:31.437Z,22.4
2018-12-25T02:00:22.302Z,22.4
2018-12-25T02:01:11.822Z,22.4
2018-12-25T02:02:02.456Z,22.5
2018-12-25T02:02:51.647Z,22.5
2018-12-25T02:03:42.012Z,22.5
2018-12-25T02:04:32.052Z,22.6
2018-12-25T02:05:21.872Z,22.6
2018-12-25T02:06:12.464Z,22.6
2018-12-25T02:07:02.219Z,22.7
2018-12-25T02:07:52.000Z,22.8
2018-12-25T02:08:42.346Z,22.8
2018-12-25T02:09:32.674Z,22.9
2018-12-25T02:10:21.626Z,23
2018-12-25T02:11:12.806Z,23.1
2018-12-25T02:12:02.850Z,23.2
2018-12-25T02:12:52.352Z,23.3
2018-12-25T02:13:42.413Z,23.3
2018-12-25T02:14:32.236Z,23.4
2018-12-25T02:15:22.794Z,23.5
2018-12-25T02:16:12.281Z,23.6
2018-12-25T02:17:02.638Z,23.7
2018-12-25T02:17:52.974Z,23.8
2018-12-25T02:18:42.738Z,23.9
2018-12-25T02:19:40.614Z,23.9
2018-12-25T02:20:22.875Z,24
2018-12-25T02:21:13.201Z,24.1
2018-12-25T02:22:03.318Z,24.2
2018-12-25T02:22:53.341Z,24.3
2018-12-25T02:23:43.660Z,24.4
2018-12-25T02:24:33.163Z,24.4
2018-12-25T02:25:23.293Z,24.5
2018-12-25T02:26:13.550Z,24.6
2018-12-25T02:27:03.585Z,24.7
2018-12-25T02:27:53.933Z,24.8
2018-12-25T02:28:43.723Z,24.9
2018-12-25T02:29:34.015Z,24.9
2018-12-25T02:30:24.207Z,25
2018-12-25T02:31:13.796Z,25.1
2018-12-25T02:32:03.688Z,25.2
2018-12-25T02:32:54.362Z,25.3
2018-12-25T02:33:43.805Z,25.4
2018-12-25T02:34:34.456Z,25.4
2018-12-25T02:35:24.006Z,25.6
2018-12-25T02:36:14.631Z,25.6
2018-12-25T02:37:04.030Z,25.7
2018-12-25T02:37:54.404Z,25.8
2018-12-25T02:38:44.515Z,25.9
2018-12-25T02:39:34.491Z,26
2018-12-25T02:40:23.478Z,26.1
2018-12-25T02:41:14.470Z,26.2
2018-12-25T02:42:04.114Z,26.2
2018-12-25T02:42:54.211Z,26.3
2018-12-25T02:43:43.986Z,26.4
2018-12-25T02:44:34.904Z,26.5
2018-12-25T02:45:24.876Z,26.6
2018-12-25T02:46:15.274Z,26.6
2018-12-25T02:47:05.060Z,26.7
2018-12-25T02:47:54.805Z,26.8
2018-12-25T02:48:44.854Z,26.9
2018-12-25T02:49:34.389Z,26.9
2018-12-25T02:50:25.132Z,27
2018-12-25T02:51:15.575Z,27.1
2018-12-25T02:52:05.349Z,27.1
2018-12-25T02:52:54.912Z,27.2
2018-12-25T02:53:45.189Z,27.3
2018-12-25T02:54:35.590Z,27.3
2018-12-25T02:55:25.596Z,27.4
2018-12-25T02:56:15.414Z,27.4
2018-12-25T02:57:05.444Z,27.6
2018-12-25T02:57:56.061Z,27.6
2018-12-25T02:58:45.530Z,27.6
2018-12-25T02:59:35.874Z,27.7
2018-12-25T03:01:15.419Z,27.9
2018-12-25T03:02:05.101Z,28
2018-12-25T03:02:56.116Z,28
2018-12-25T03:03:46.589Z,28.1
2018-12-25T03:04:36.064Z,28.2
2018-12-25T03:05:26.355Z,28.3
2018-12-25T03:06:16.030Z,28.3
2018-12-25T03:07:06.648Z,28.4
2018-12-25T03:07:55.889Z,28.5
2018-12-25T03:08:46.540Z,28.6
2018-12-25T03:09:36.948Z,28.6
2018-12-25T03:10:26.594Z,28.8
2018-12-25T03:11:16.696Z,28.8
2018-12-25T03:12:07.035Z,28.9
2018-12-25T03:12:57.053Z,28.9
2018-12-25T03:13:47.040Z,29
2018-12-25T03:14:36.955Z,29.1
2018-12-25T03:15:26.740Z,29.1
2018-12-25T03:16:17.071Z,29.2
2018-12-25T03:17:07.335Z,29.3
2018-12-25T03:17:57.163Z,29.3
2018-12-25T03:18:46.450Z,29.4
2018-12-25T03:19:37.234Z,29.5
2018-12-25T03:20:26.760Z,29.6
2018-12-25T03:21:17.657Z,29.6
2018-12-25T03:22:07.131Z,29.7
2018-12-25T03:22:56.998Z,29.8
2018-12-25T03:23:46.973Z,29.9
2018-12-25T03:24:37.346Z,29.9
2018-12-25T03:25:27.513Z,30
2018-12-25T03:26:17.411Z,30.1
2018-12-25T03:27:08.287Z,30.1
2018-12-25T03:27:58.207Z,30.3
2018-12-25T03:28:48.416Z,30.3
2018-12-25T03:29:37.713Z,30.4
2018-12-25T03:30:27.933Z,30.4
2018-12-25T03:31:18.506Z,30.5
2018-12-25T03:32:08.906Z,30.5
2018-12-25T03:32:58.173Z,30.6
2018-12-25T03:33:48.476Z,30.6
2018-12-25T03:34:38.301Z,30.6
2018-12-25T03:35:28.132Z,30.7
2018-12-25T03:36:17.871Z,30.8
2018-12-25T03:37:07.911Z,30.8
2018-12-25T03:37:58.345Z,30.8
2018-12-25T03:38:48.414Z,30.8
2018-12-25T03:39:39.186Z,30.9
2018-12-25T03:40:28.951Z,30.9
2018-12-25T03:41:18.460Z,30.9
2018-12-25T03:42:08.886Z,30.9
2018-12-25T03:42:58.586Z,30.9
2018-12-25T03:43:48.643Z,31
2018-12-25T03:44:38.833Z,31
2018-12-25T03:45:28.471Z,31
2018-12-25T03:46:18.566Z,31.1
2018-12-25T03:47:08.914Z,31.1
2018-12-25T03:47:59.537Z,31.1
2018-12-25T03:48:49.274Z,31.1
2018-12-25T03:49:39.315Z,31.1
2018-12-25T03:50:29.642Z,31.2
2018-12-25T03:51:19.704Z,31.2
2018-12-25T03:52:09.865Z,31.2
2018-12-25T03:52:59.873Z,31.2
2018-12-25T03:53:49.121Z,31.3
2018-12-25T03:54:39.398Z,31.3
2018-12-25T03:55:30.218Z,31.2
2018-12-25T03:56:19.005Z,31.3
2018-12-25T03:57:09.553Z,31.3
2018-12-25T03:58:00.160Z,31.3
2018-12-25T03:58:49.693Z,31.3
2018-12-25T03:59:40.024Z,31.3
2018-12-25T04:00:29.873Z,31.3
2018-12-25T04:01:19.563Z,31.3
2018-12-25T04:02:09.941Z,31.4
2018-12-25T04:03:00.509Z,31.4
2018-12-25T04:03:50.326Z,31.4
2018-12-25T04:04:40.618Z,31.4
2018-12-25T04:05:30.800Z,31.4
2018-12-25T04:06:20.289Z,31.4
2018-12-25T04:07:10.845Z,31.4
2018-12-25T04:08:00.052Z,31.5
2018-12-25T04:08:50.667Z,31.6
2018-12-25T04:09:41.045Z,31.6
2018-12-25T04:10:29.938Z,31.6
2018-12-25T04:11:20.614Z,31.6
2018-12-25T04:12:10.063Z,31.6
2018-12-25T04:13:00.671Z,31.6
2018-12-25T04:13:51.095Z,31.6
2018-12-25T04:14:41.290Z,31.7
2018-12-25T04:15:31.390Z,31.6
2018-12-25T04:16:21.181Z,31.7
2018-12-25T04:17:10.941Z,31.7
2018-12-25T04:18:01.285Z,31.7
2018-12-25T04:18:51.311Z,31.6
2018-12-25T04:19:41.104Z,31.7
2018-12-25T04:20:31.439Z,31.7
2018-12-25T04:21:21.131Z,31.7
2018-12-25T04:22:11.543Z,31.6
2018-12-25T04:23:01.884Z,31.7
2018-12-25T04:23:51.967Z,31.7
2018-12-25T04:24:41.729Z,31.7
2018-12-25T04:25:31.830Z,31.7
2018-12-25T04:26:21.002Z,31.7
2018-12-25T04:27:11.913Z,31.8
2018-12-25T04:28:01.939Z,31.7
2018-12-25T04:28:51.996Z,31.7
2018-12-25T04:29:42.341Z,31.8
2018-12-25T04:30:32.110Z,31.7
2018-12-25T04:31:21.840Z,31.7
2018-12-25T04:32:12.223Z,31.7
2018-12-25T04:33:02.276Z,31.8
2018-12-25T04:33:52.041Z,31.8
2018-12-25T04:34:41.836Z,31.8
2018-12-25T04:35:32.511Z,31.8
2018-12-25T04:36:22.486Z,31.8
2018-12-25T04:37:12.843Z,31.7
2018-12-25T04:38:02.140Z,31.8
2018-12-25T04:38:52.739Z,31.7
2018-12-25T04:39:42.790Z,31.7
2018-12-25T04:40:33.088Z,31.8
2018-12-25T04:41:23.140Z,31.7
2018-12-25T04:42:12.172Z,31.8
2018-12-25T04:43:02.795Z,31.7
2018-12-25T04:43:53.047Z,31.6
2018-12-25T04:44:42.810Z,31.4
2018-12-25T05:01:58.446Z,26.9
2018-12-25T05:02:48.256Z,26.8
2018-12-25T05:03:39.361Z,26.6
2018-12-25T05:04:28.639Z,26.4
2018-12-25T05:05:18.683Z,26.3
2018-12-25T05:06:08.764Z,26.2
2018-12-25T05:06:59.474Z,26.1
2018-12-25T05:07:49.144Z,26
2018-12-25T05:08:39.426Z,25.9
2018-12-25T05:09:29.981Z,25.8
2018-12-25T05:10:19.378Z,25.6
2018-12-25T05:11:09.597Z,25.6
2018-12-25T05:11:59.391Z,25.4
2018-12-25T05:12:49.706Z,25.3
2018-12-25T05:13:39.740Z,25.3
2018-12-25T05:14:30.281Z,25.2
2018-12-25T05:15:19.828Z,25.1
2018-12-25T05:16:09.908Z,25
2018-12-25T05:17:00.230Z,24.9
2018-12-25T05:17:50.538Z,24.8
2018-12-25T05:18:39.796Z,24.7
2018-12-25T05:19:30.127Z,24.6
2018-12-25T05:20:19.623Z,24.6
2018-12-25T05:21:09.406Z,24.5
2018-12-25T05:22:00.885Z,24.4
2018-12-25T05:22:50.343Z,24.3
2018-12-25T05:23:40.140Z,24.3
2018-12-25T05:24:30.182Z,24.2
2018-12-25T05:25:20.352Z,24.1
2018-12-25T05:26:10.312Z,24.1
2018-12-25T05:27:00.347Z,24
2018-12-25T05:27:50.727Z,23.9
2018-12-25T05:28:40.759Z,23.9
2018-12-25T05:29:30.612Z,23.8
2018-12-25T05:30:20.287Z,23.8
2018-12-25T05:31:10.115Z,23.8
2018-12-25T05:32:00.153Z,23.7
2018-12-25T05:32:51.072Z,23.6
2018-12-25T05:33:40.597Z,23.6
2018-12-25T05:34:31.207Z,23.5
2018-12-25T05:35:20.405Z,23.5
2018-12-25T05:36:11.024Z,23.4
2018-12-25T05:37:01.075Z,23.4
2018-12-25T05:37:51.411Z,23.4
2018-12-25T05:38:41.539Z,23.3
2018-12-25T05:39:31.301Z,23.3
2018-12-25T05:40:20.921Z,23.3
2018-12-25T05:41:10.916Z,23.2
2018-12-25T05:42:00.921Z,23.2
2018-12-25T05:42:51.519Z,23.1
2018-12-25T05:43:41.769Z,23.1
2018-12-25T05:44:31.912Z,23.1
2018-12-25T05:45:22.236Z,23.1
2018-12-25T05:46:12.328Z,23
2018-12-25T05:47:01.762Z,23
2018-12-25T05:47:52.091Z,22.9
2018-12-25T05:48:42.096Z,22.9
2018-12-25T05:49:31.924Z,22.9
2018-12-25T05:50:22.240Z,22.9
2018-12-25T05:51:12.313Z,22.8
2018-12-25T05:52:01.805Z,22.8
2018-12-25T05:52:52.415Z,22.8
2018-12-25T05:53:42.751Z,22.8
2018-12-25T05:54:31.973Z,22.8
2018-12-25T05:55:24.270Z,22.7
2018-12-25T05:56:12.918Z,22.7
2018-12-25T05:57:03.090Z,22.7
2018-12-25T05:57:52.615Z,22.7
2018-12-25T05:58:43.342Z,22.6
2018-12-25T05:59:32.655Z,22.6
2018-12-25T06:00:22.730Z,22.6
2018-12-25T06:01:11.690Z,22.6
2018-12-25T06:02:02.347Z,22.6
2018-12-25T06:02:52.070Z,22.6
2018-12-25T06:03:43.272Z,22.5
2018-12-25T06:04:32.983Z,22.5
2018-12-25T06:05:21.695Z,22.5
2018-12-25T06:06:11.735Z,22.4
2018-12-25T06:07:02.465Z,22.4
2018-12-25T06:07:53.322Z,22.4
2018-12-25T06:08:44.993Z,22.4
2018-12-25T06:09:33.664Z,22.4
2018-12-25T06:10:23.427Z,22.4
2018-12-25T06:11:13.194Z,22.3
2018-12-25T06:12:02.994Z,22.3
2018-12-25T06:12:53.292Z,22.3
2018-12-25T06:13:43.659Z,22.3
2018-12-25T06:14:33.697Z,22.2
2018-12-25T06:15:24.227Z,22.2
2018-12-25T06:16:13.794Z,22.1
2018-12-25T06:17:04.079Z,22.1
2018-12-25T06:17:53.663Z,22.1
2018-12-25T06:18:44.504Z,22.1
2018-12-25T06:19:33.969Z,22
2018-12-25T06:20:24.319Z,21.9
2018-12-25T06:21:13.606Z,21.9
2018-12-25T06:22:03.851Z,21.9
2018-12-25T06:22:54.432Z,21.9
2018-12-25T06:23:44.501Z,21.8
2018-12-25T06:24:34.294Z,21.8
2018-12-25T06:25:24.739Z,21.8
2018-12-25T06:26:14.694Z,21.8
2018-12-25T06:27:04.514Z,21.7
2018-12-25T06:27:54.536Z,21.7
2018-12-25T06:28:44.899Z,21.6
2018-12-25T06:29:35.463Z,21.6
2018-12-25T06:30:25.006Z,21.6
2018-12-25T06:31:14.761Z,21.6
2018-12-25T06:32:03.798Z,21.6
2018-12-25T06:32:53.856Z,21.5
2018-12-25T06:33:45.208Z,21.5
2018-12-25T06:34:34.726Z,21.4
2018-12-25T06:35:25.658Z,21.4
2018-12-25T06:36:15.429Z,21.4
2018-12-25T06:37:05.449Z,21.4
2018-12-25T06:37:54.273Z,21.4
2018-12-25T06:38:45.078Z,21.3
2018-12-25T06:39:35.430Z,21.3
2018-12-25T06:40:25.193Z,21.3
2018-12-25T06:41:15.188Z,21.3
2018-12-25T06:42:05.795Z,21.3
2018-12-25T06:42:56.116Z,21.3
2018-12-25T06:43:46.503Z,21.2
2018-12-25T06:44:35.945Z,21.2
2018-12-25T06:47:05.923Z,21.1
2018-12-25T06:49:35.567Z,21.1
2018-12-25T06:51:16.341Z,21.1
2018-12-25T06:52:06.268Z,21
2018-12-25T06:52:55.327Z,21
2018-12-25T06:53:46.294Z,21
2018-12-25T06:54:37.174Z,20.9
2018-12-25T06:55:26.508Z,20.9
2018-12-25T06:56:16.072Z,21
2018-12-25T06:57:06.601Z,20.9
2018-12-25T06:57:56.491Z,20.9
2018-12-25T06:58:46.454Z,20.9
2018-12-25T06:59:36.607Z,20.9
2018-12-25T07:00:26.584Z,20.9
2018-12-25T07:01:16.601Z,20.9
2018-12-25T07:02:05.871Z,20.9
2018-12-25T07:02:56.732Z,20.8
2018-12-25T07:03:46.339Z,20.8
2018-12-25T07:04:37.116Z,20.8
2018-12-25T07:05:27.161Z,20.8
2018-12-25T07:06:15.841Z,20.8
2018-12-25T07:07:07.196Z,20.8
2018-12-25T07:07:56.603Z,20.8
2018-12-25T07:08:46.961Z,20.8
2018-12-25T07:09:37.186Z,20.7
2018-12-25T07:10:27.533Z,20.7
2018-12-25T07:11:17.093Z,20.7
2018-12-25T07:12:07.158Z,20.7
2018-12-25T07:12:56.957Z,20.7
2018-12-25T07:13:47.740Z,20.7
2018-12-25T07:14:36.602Z,20.7
2018-12-25T07:15:36.675Z,20.7
2018-12-25T07:16:18.131Z,20.6
2018-12-25T07:17:08.150Z,20.7
2018-12-25T07:17:58.250Z,20.6
2018-12-25T07:18:47.742Z,20.6
2018-12-25T07:19:38.467Z,20.6
2018-12-25T07:20:30.175Z,20.6
2018-12-25T07:21:18.202Z,20.6
2018-12-25T07:22:07.737Z,20.6
2018-12-25T07:22:57.809Z,20.6
2018-12-25T07:23:48.239Z,20.6
2018-12-25T07:24:38.682Z,20.6
2018-12-25T07:25:29.129Z,20.6
2018-12-25T07:26:19.059Z,20.6
2018-12-25T07:27:08.824Z,20.6
2018-12-25T07:27:59.029Z,20.6
2018-12-25T07:28:48.423Z,20.6
2018-12-25T07:29:38.482Z,20.5
2018-12-25T07:30:28.411Z,20.6
2018-12-25T07:31:19.123Z,20.5
2018-12-25T07:32:09.458Z,20.5
2018-12-25T07:32:59.328Z,20.5
2018-12-25T07:33:48.886Z,20.5
2018-12-25T07:34:39.422Z,20.5
2018-12-25T07:35:29.801Z,20.5
2018-12-25T07:36:19.308Z,20.5
2018-12-25T07:37:08.799Z,20.5
2018-12-25T07:37:58.868Z,20.5
2018-12-25T07:38:49.377Z,20.5
2018-12-25T07:39:39.420Z,20.5
2018-12-25T07:40:29.568Z,20.5
2018-12-25T07:41:19.688Z,20.5
2018-12-25T07:42:10.269Z,20.4
2018-12-25T07:42:59.990Z,20.5
2018-12-25T07:43:49.995Z,20.4
2018-12-25T07:44:40.063Z,20.4
2018-12-25T07:45:29.873Z,20.5
2018-12-25T07:46:19.060Z,20.4
2018-12-25T07:47:11.787Z,20.5
2018-12-25T07:48:00.010Z,20.4
2018-12-25T07:48:50.392Z,20.4
2018-12-25T07:49:39.632Z,20.4
2018-12-25T07:50:30.980Z,20.4
2018-12-25T07:51:26.279Z,20.4
2018-12-25T07:52:11.041Z,20.4
2018-12-25T07:53:00.678Z,20.4
2018-12-25T07:53:50.658Z,20.4
2018-12-25T07:54:41.018Z,20.4
2018-12-25T07:55:30.561Z,20.4
2018-12-25T07:56:20.636Z,20.4
2018-12-25T07:57:10.637Z,20.4
2018-12-25T07:58:00.417Z,20.4
2018-12-25T07:58:49.811Z,20.4
2018-12-25T07:59:40.812Z,20.4
2018-12-25T08:00:30.704Z,20.4
2018-12-25T08:01:21.086Z,20.4
2018-12-25T08:02:11.517Z,20.4
2018-12-25T08:03:01.360Z,20.4
2018-12-25T08:03:51.604Z,20.3
2018-12-25T08:04:40.047Z,20.3
2018-12-25T08:05:30.783Z,20.3
2018-12-25T08:06:21.564Z,20.3
2018-12-25T08:07:11.878Z,20.3
2018-12-25T08:08:01.376Z,20.3
2018-12-25T08:08:52.063Z,20.3
2018-12-25T08:09:42.044Z,20.3
2018-12-25T08:10:32.161Z,20.3
2018-12-25T08:11:21.880Z,20.3
2018-12-25T08:12:12.308Z,20.3
2018-12-25T08:13:02.002Z,20.3
2018-12-25T08:13:52.057Z,20.3
2018-12-25T08:14:42.128Z,20.2
2018-12-25T08:15:31.971Z,20.3
2018-12-25T08:16:22.486Z,20.2
2018-12-25T08:17:12.228Z,20.3
2018-12-25T08:18:02.605Z,20.3
2018-12-25T08:18:52.395Z,20.3
2018-12-25T08:19:42.766Z,20.2
2018-12-25T08:20:31.687Z,20.2
2018-12-25T08:21:31.190Z,20.2
2018-12-25T08:22:12.600Z,20.2
2018-12-25T08:23:07.916Z,20.2
2018-12-25T08:23:52.700Z,20.2
2018-12-25T08:24:43.160Z,20.2
2018-12-25T08:25:32.842Z,20.2
2018-12-25T08:26:22.623Z,20.2
2018-12-25T08:27:12.970Z,20.2
2018-12-25T08:28:01.916Z,20.2
2018-12-25T08:28:52.539Z,20.2
2018-12-25T08:29:42.020Z,20.2
2018-12-25T08:30:32.617Z,20.1
2018-12-25T08:31:22.697Z,20.1
2018-12-25T08:32:13.260Z,20.1
2018-12-25T08:33:03.163Z,20.2
2018-12-25T08:33:53.150Z,20.1
2018-12-25T08:34:43.749Z,20.1
2018-12-25T08:35:33.777Z,20.1
2018-12-25T08:36:23.699Z,20.1
2018-12-25T08:37:13.917Z,20.1
2018-12-25T08:38:03.437Z,20.1
2018-12-25T08:38:53.815Z,20.1
2018-12-25T08:39:43.339Z,20.1
2018-12-25T08:40:33.882Z,20.1
2018-12-25T08:41:23.937Z,20.1
2018-12-25T08:42:13.749Z,20.1
2018-12-25T08:43:03.484Z,20.1
2018-12-25T08:43:54.169Z,20.1
2018-12-25T08:44:43.414Z,20.1
2018-12-25T08:45:33.942Z,20.1
2018-12-25T08:46:24.269Z,20.1
2018-12-25T08:47:16.502Z,20.1
2018-12-25T08:48:04.376Z,20.1
2018-12-25T08:48:54.714Z,20.1
2018-12-25T08:49:44.776Z,20.1
2018-12-25T08:50:34.014Z,20.1
2018-12-25T08:51:24.564Z,20.1
2018-12-25T08:52:14.389Z,20.1
2018-12-25T08:53:04.704Z,20.1
2018-12-25T08:53:54.848Z,20
2018-12-25T08:54:44.558Z,20
2018-12-25T08:55:34.768Z,20
2018-12-25T08:56:24.126Z,20.1
2018-12-25T08:57:14.463Z,20
2018-12-25T08:58:04.818Z,20
2018-12-25T08:58:55.430Z,20.1
2018-12-25T08:59:45.433Z,20
2018-12-25T09:00:34.681Z,20.1
2018-12-25T09:16:25.453Z,20
2018-12-25T09:17:15.784Z,20
2018-12-25T09:18:05.119Z,20
2018-12-25T09:18:55.612Z,20
2018-12-25T09:19:45.679Z,20
2018-12-25T09:20:35.445Z,20
2018-12-25T09:21:26.922Z,20
2018-12-25T09:22:15.422Z,20
2018-12-25T09:23:05.607Z,20
2018-12-25T09:23:55.752Z,19.9
2018-12-25T09:24:45.753Z,20
2018-12-25T09:25:35.522Z,20
2018-12-25T09:26:26.967Z,20
2018-12-25T09:27:15.899Z,20
2018-12-25T09:28:06.244Z,20
2018-12-25T09:28:56.284Z,20
2018-12-25T09:29:45.502Z,20
2018-12-25T09:30:36.111Z,20
2018-12-25T09:31:27.226Z,19.9
2018-12-25T09:32:16.510Z,20
2018-12-25T09:33:06.670Z,19.9
2018-12-25T09:33:56.071Z,20
2018-12-25T09:34:48.532Z,20
2018-12-25T09:35:36.546Z,19.9
2018-12-25T09:36:26.471Z,19.9
2018-12-25T09:37:17.131Z,19.9
2018-12-25T09:38:06.936Z,19.9
2018-12-25T09:38:56.715Z,19.9
2018-12-25T09:39:46.723Z,19.9
2018-12-25T09:40:36.806Z,19.9
2018-12-25T09:41:27.131Z,19.9
2018-12-25T09:42:16.793Z,19.9
2018-12-25T09:43:06.729Z,19.9
2018-12-25T09:43:57.321Z,19.9
2018-12-25T09:44:47.360Z,19.9
2018-12-25T09:45:36.891Z,20
2018-12-25T09:46:26.298Z,19.9
2018-12-25T09:47:16.772Z,19.9
2018-12-25T09:48:15.701Z,19.9
2018-12-25T09:48:56.878Z,22.2
2018-12-25T09:49:47.220Z,28.4
2018-12-25T09:50:37.551Z,29.2
2018-12-25T09:51:27.373Z,32.1
2018-12-25T09:52:17.437Z,34.8
2018-12-25T09:53:07.180Z,36
2018-12-25T09:53:57.499Z,35.3
2018-12-25T09:54:47.222Z,33.6
2018-12-25T09:55:37.815Z,32.8
2018-12-25T09:56:27.870Z,32.3
2018-12-25T09:57:18.454Z,32
2018-12-25T09:58:08.009Z,31.8
2018-12-25T09:58:58.329Z,31.5
2018-12-25T09:59:48.125Z,31.3
2018-12-25T10:00:39.983Z,31
2018-12-25T10:01:28.774Z,31.7
2018-12-25T10:02:18.262Z,34.4
2018-12-25T10:03:08.885Z,35.3
2018-12-25T10:03:58.754Z,37.9
2018-12-25T10:04:48.436Z,39.6
2018-12-25T10:05:39.052Z,40.3
2018-12-25T10:06:29.199Z,40.3
2018-12-25T10:07:18.691Z,40.2
2018-12-25T10:08:08.697Z,40.3
2018-12-25T10:08:58.746Z,40.5
2018-12-25T10:09:48.144Z,40.7
2018-12-25T10:10:38.984Z,40.8
2018-12-25T10:11:29.064Z,40.7
2018-12-25T10:12:19.588Z,40.4
2018-12-25T10:13:08.298Z,40.3
2018-12-25T10:13:58.646Z,40.2
2018-12-25T10:14:49.750Z,40.2
2018-12-25T10:15:39.293Z,40.4
2018-12-25T10:16:29.285Z,40.7
2018-12-25T10:17:20.146Z,41.1
2018-12-25T10:18:09.263Z,41.2
2018-12-25T10:19:00.008Z,41.1
2018-12-25T10:19:49.568Z,40.8
2018-12-25T10:20:39.831Z,40.6
2018-12-25T10:21:30.178Z,40.4
2018-12-25T10:22:19.676Z,40.3
2018-12-25T10:23:09.534Z,40.1
2018-12-25T10:23:59.821Z,40
2018-12-25T10:24:52.348Z,39.9
2018-12-25T10:25:39.933Z,39.8
2018-12-25T10:26:30.021Z,39.6
2018-12-25T10:27:19.568Z,39.3
2018-12-25T10:28:09.815Z,38.9
2018-12-25T10:29:00.630Z,38.5
2018-12-25T10:29:49.115Z,38
2018-12-25T10:30:40.481Z,37.4
2018-12-25T10:31:30.147Z,36.8
2018-12-25T10:32:20.575Z,36.1
2018-12-25T10:33:09.883Z,35.5
2018-12-25T10:34:00.222Z,34.9
2018-12-25T10:34:50.224Z,35.4
2018-12-25T10:35:39.987Z,36.3
2018-12-25T10:36:31.159Z,36.6
2018-12-25T10:37:20.209Z,36.5
2018-12-25T10:38:11.309Z,36.3
2018-12-25T10:39:00.567Z,35.9
2018-12-25T10:39:50.950Z,35.5
2018-12-25T10:40:40.615Z,34.9
2018-12-25T10:41:30.657Z,34.4
2018-12-25T10:42:21.625Z,33.9
2018-12-25T10:43:11.101Z,33.4
2018-12-25T10:44:01.479Z,33
2018-12-25T10:44:51.412Z,32.6
2018-12-25T10:45:39.931Z,32.2
2018-12-25T10:46:30.819Z,31.9
2018-12-25T10:47:20.378Z,31.5
2018-12-25T10:48:10.739Z,31.3
2018-12-25T10:49:01.275Z,30.9
2018-12-25T10:49:50.554Z,30.7
2018-12-25T10:50:43.558Z,30.5
2018-12-25T10:51:31.426Z,30.3
2018-12-25T10:52:21.008Z,30.1
2018-12-25T10:53:11.513Z,29.9
2018-12-25T10:54:01.961Z,29.6
2018-12-25T10:54:51.736Z,29.4
2018-12-25T10:55:41.970Z,29.3
2018-12-25T10:56:31.759Z,29.1
2018-12-25T10:57:22.550Z,28.9
2018-12-25T10:58:12.451Z,28.8
2018-12-25T10:59:01.395Z,28.6
2018-12-25T10:59:52.466Z,28.4
2018-12-25T11:00:42.260Z,28.3
2018-12-25T11:01:32.683Z,28.2
2018-12-25T11:02:22.923Z,28.1
2018-12-25T11:03:14.544Z,27.9
2018-12-25T11:04:02.719Z,27.8
2018-12-25T11:04:52.775Z,27.6
2018-12-25T11:05:42.854Z,27.5
2018-12-25T11:06:32.927Z,27.4
2018-12-25T11:07:23.075Z,27.3
2018-12-25T11:08:12.482Z,27.2
2018-12-25T11:09:03.313Z,27
2018-12-25T11:09:53.500Z,26.9
2018-12-25T11:10:42.943Z,26.8
2018-12-25T11:11:33.638Z,26.7
2018-12-25T11:12:23.587Z,26.6
2018-12-25T11:13:12.892Z,26.5
2018-12-25T11:14:02.675Z,26.4
2018-12-25T11:14:52.969Z,26.3
2018-12-25T11:15:43.297Z,26.3
2018-12-25T11:16:33.875Z,26.1
2018-12-25T11:17:23.159Z,26
2018-12-25T11:18:13.245Z,25.9
2018-12-25T11:19:03.772Z,25.9
2018-12-25T11:19:52.987Z,25.8
2018-12-25T11:20:43.962Z,25.7
2018-12-25T11:21:34.219Z,25.6
2018-12-25T11:22:24.572Z,25.6
2018-12-25T11:23:14.377Z,25.5
2018-12-25T11:24:03.577Z,25.4
2018-12-25T11:24:54.169Z,25.3
2018-12-25T11:25:44.194Z,25.3
2018-12-25T11:26:34.317Z,25.2
2018-12-25T11:27:24.341Z,25.1
2018-12-25T11:28:14.654Z,25.1
2018-12-25T11:29:04.173Z,25
2018-12-25T11:29:54.261Z,24.9
2018-12-25T11:30:44.579Z,24.9
2018-12-25T11:31:34.657Z,24.8
2018-12-25T11:32:24.971Z,24.8
2018-12-25T11:33:15.016Z,24.7
2018-12-25T11:34:07.139Z,24.6
2018-12-25T11:34:54.434Z,24.6
2018-12-25T11:35:44.673Z,24.5
2018-12-25T11:36:34.706Z,24.4
2018-12-25T11:37:24.278Z,24.4
2018-12-25T11:38:14.253Z,24.4
2018-12-25T11:39:05.143Z,24.3
2018-12-25T11:39:55.403Z,24.3
2018-12-25T11:40:44.991Z,24.2
2018-12-25T11:41:35.075Z,24.1
2018-12-25T11:42:24.816Z,24.1
2018-12-25T11:43:14.968Z,24
2018-12-25T11:44:05.290Z,23.9
2018-12-25T11:44:55.272Z,23.9
2018-12-25T11:45:45.295Z,23.8
2018-12-25T11:46:35.953Z,23.8
2018-12-25T11:47:25.450Z,23.6
2018-12-25T11:48:15.786Z,23.6
2018-12-25T11:49:05.570Z,23.5
2018-12-25T11:49:55.353Z,23.4
2018-12-25T11:50:45.207Z,23.3
2018-12-25T11:51:36.050Z,23.3
2018-12-25T11:52:33.841Z,23.1
2018-12-25T11:53:16.220Z,23.1
2018-12-25T11:54:06.429Z,23
2018-12-25T11:54:55.965Z,22.9
2018-12-25T11:55:46.362Z,22.8
2018-12-25T11:56:36.430Z,22.7
2018-12-25T11:57:26.690Z,22.6
2018-12-25T11:58:17.381Z,22.6
2018-12-25T11:59:06.844Z,22.4
2018-12-25T11:59:56.614Z,22.4
2018-12-25T12:00:45.899Z,22.3
2018-12-25T12:01:36.537Z,22.3
2018-12-25T12:02:27.023Z,22.2
2018-12-25T12:03:16.796Z,22.1